sensor_id;sensor_type;location;lat;lon;timestamp;P1;durP1;ratioP1;P2;durP2;ratioP2
64242;SDS011;50573;51.512;5.386;2022-08-21T00:09:04;8.50;;;5.90;;
64242;SDS011;50573;51.512;5.386;2022-08-21T00:19:08;11.10;;;6.00;;
64242;SDS011;50573;51.512;5.386;2022-08-21T00:29:13;17.95;;;7.47;;
64242;SDS011;50573;51.512;5.386;2022-08-21T00:39:16;16.60;;;9.05;;
64242;SDS011;50573;51.512;5.386;2022-08-21T00:49:21;13.27;;;8.48;;
64242;SDS011;50573;51.512;5.386;2022-08-21T00:59:24;16.63;;;8.73;;
64242;SDS011;50573;51.512;5.386;2022-08-21T01:09:31;13.82;;;8.80;;
64242;SDS011;50573;51.512;5.386;2022-08-21T01:19:34;11.27;;;8.53;;
64242;SDS011;50573;51.512;5.386;2022-08-21T01:29:41;11.73;;;9.38;;
64242;SDS011;50573;51.512;5.386;2022-08-21T01:39:47;16.65;;;9.10;;
64242;SDS011;50573;51.512;5.386;2022-08-21T01:49:52;17.05;;;10.57;;
64242;SDS011;50573;51.512;5.386;2022-08-21T01:59:55;18.17;;;11.50;;
64242;SDS011;50573;51.512;5.386;2022-08-21T02:10:00;18.58;;;9.38;;
64242;SDS011;50573;51.512;5.386;2022-08-21T02:20:03;17.73;;;9.40;;
64242;SDS011;50573;51.512;5.386;2022-08-21T02:30:09;16.60;;;10.83;;
64242;SDS011;50573;51.512;5.386;2022-08-21T02:40:14;18.40;;;11.95;;
64242;SDS011;50573;51.512;5.386;2022-08-21T02:50:21;15.65;;;12.15;;
64242;SDS011;50573;51.512;5.386;2022-08-21T03:00:28;28.58;;;16.20;;
64242;SDS011;50573;51.512;5.386;2022-08-21T03:10:34;24.73;;;18.02;;
64242;SDS011;50573;51.512;5.386;2022-08-21T03:20:38;28.30;;;18.98;;
64242;SDS011;50573;51.512;5.386;2022-08-21T03:40:47;25.23;;;19.13;;
64242;SDS011;50573;51.512;5.386;2022-08-21T03:50:52;26.10;;;17.42;;
64242;SDS011;50573;51.512;5.386;2022-08-21T04:00:56;23.33;;;17.37;;
64242;SDS011;50573;51.512;5.386;2022-08-21T04:11:02;29.85;;;17.77;;
64242;SDS011;50573;51.512;5.386;2022-08-21T04:21:05;22.03;;;16.57;;
64242;SDS011;50573;51.512;5.386;2022-08-21T04:31:15;27.27;;;18.23;;
64242;SDS011;50573;51.512;5.386;2022-08-21T04:41:18;32.13;;;16.57;;
64242;SDS011;50573;51.512;5.386;2022-08-21T04:51:31;21.98;;;15.80;;
64242;SDS011;50573;51.512;5.386;2022-08-21T05:01:37;26.63;;;15.27;;
64242;SDS011;50573;51.512;5.386;2022-08-21T05:11:43;20.88;;;14.57;;
64242;SDS011;50573;51.512;5.386;2022-08-21T05:21:47;23.50;;;13.38;;
64242;SDS011;50573;51.512;5.386;2022-08-21T05:31:53;19.43;;;12.57;;
64242;SDS011;50573;51.512;5.386;2022-08-21T05:41:56;23.77;;;10.63;;
64242;SDS011;50573;51.512;5.386;2022-08-21T05:52:00;18.33;;;10.30;;
64242;SDS011;50573;51.512;5.386;2022-08-21T06:02:04;22.77;;;10.17;;
64242;SDS011;50573;51.512;5.386;2022-08-21T06:12:10;22.67;;;9.43;;
64242;SDS011;50573;51.512;5.386;2022-08-21T06:22:14;21.42;;;9.15;;
64242;SDS011;50573;51.512;5.386;2022-08-21T06:32:19;26.15;;;9.45;;
64242;SDS011;50573;51.512;5.386;2022-08-21T06:42:22;13.97;;;7.93;;
64242;SDS011;50573;51.512;5.386;2022-08-21T06:52:30;20.55;;;8.02;;
64242;SDS011;50573;51.512;5.386;2022-08-21T07:02:33;17.77;;;7.53;;
64242;SDS011;50573;51.512;5.386;2022-08-21T07:12:43;16.95;;;7.65;;
64242;SDS011;50573;51.512;5.386;2022-08-21T07:22:47;23.10;;;7.80;;
64242;SDS011;50573;51.512;5.386;2022-08-21T07:32:51;24.95;;;7.97;;
64242;SDS011;50573;51.512;5.386;2022-08-21T07:52:59;18.17;;;5.72;;
64242;SDS011;50573;51.512;5.386;2022-08-21T08:13:06;15.90;;;5.15;;
64242;SDS011;50573;51.512;5.386;2022-08-21T08:23:11;16.00;;;4.90;;
64242;SDS011;50573;51.512;5.386;2022-08-21T08:33:16;13.43;;;4.35;;
64242;SDS011;50573;51.512;5.386;2022-08-21T08:43:19;16.05;;;5.05;;
64242;SDS011;50573;51.512;5.386;2022-08-21T08:53:25;18.30;;;4.27;;
64242;SDS011;50573;51.512;5.386;2022-08-21T09:03:32;15.68;;;3.75;;
64242;SDS011;50573;51.512;5.386;2022-08-21T09:13:42;11.95;;;2.75;;
64242;SDS011;50573;51.512;5.386;2022-08-21T09:23:55;15.63;;;3.25;;
64242;SDS011;50573;51.512;5.386;2022-08-21T09:34:04;13.50;;;3.17;;
64242;SDS011;50573;51.512;5.386;2022-08-21T09:44:09;8.65;;;2.85;;
64242;SDS011;50573;51.512;5.386;2022-08-21T09:54:17;14.90;;;3.33;;
64242;SDS011;50573;51.512;5.386;2022-08-21T10:04:27;8.65;;;2.72;;
64242;SDS011;50573;51.512;5.386;2022-08-21T10:14:37;6.60;;;2.22;;
64242;SDS011;50573;51.512;5.386;2022-08-21T10:24:51;12.45;;;3.08;;
64242;SDS011;50573;51.512;5.386;2022-08-21T10:35:02;10.00;;;2.42;;
64242;SDS011;50573;51.512;5.386;2022-08-21T10:45:26;6.47;;;2.17;;
64242;SDS011;50573;51.512;5.386;2022-08-21T10:55:50;8.65;;;2.38;;
64242;SDS011;50573;51.512;5.386;2022-08-21T11:05:57;14.25;;;3.00;;
64242;SDS011;50573;51.512;5.386;2022-08-21T11:16:07;12.23;;;3.75;;
64242;SDS011;50573;51.512;5.386;2022-08-21T11:36:27;11.18;;;3.05;;
64242;SDS011;50573;51.512;5.386;2022-08-21T11:46:40;8.40;;;2.95;;
64242;SDS011;50573;51.512;5.386;2022-08-21T11:56:53;11.40;;;2.57;;
64242;SDS011;50573;51.512;5.386;2022-08-21T12:07:09;6.20;;;2.47;;
64242;SDS011;50573;51.512;5.386;2022-08-21T12:17:18;10.68;;;2.55;;
64242;SDS011;50573;51.512;5.386;2022-08-21T12:27:26;11.32;;;2.85;;
64242;SDS011;50573;51.512;5.386;2022-08-21T12:37:37;13.60;;;4.47;;
64242;SDS011;50573;51.512;5.386;2022-08-21T12:47:45;7.03;;;2.38;;
64242;SDS011;50573;51.512;5.386;2022-08-21T12:57:54;11.77;;;2.67;;
64242;SDS011;50573;51.512;5.386;2022-08-21T13:08:00;10.43;;;2.88;;
64242;SDS011;50573;51.512;5.386;2022-08-21T13:18:08;13.45;;;2.47;;
64242;SDS011;50573;51.512;5.386;2022-08-21T13:28:25;9.75;;;2.85;;
64242;SDS011;50573;51.512;5.386;2022-08-21T13:38:37;7.32;;;2.80;;
64242;SDS011;50573;51.512;5.386;2022-08-21T13:48:44;10.85;;;2.90;;
64242;SDS011;50573;51.512;5.386;2022-08-21T13:58:48;9.88;;;2.55;;
64242;SDS011;50573;51.512;5.386;2022-08-21T14:08:52;10.80;;;3.25;;
64242;SDS011;50573;51.512;5.386;2022-08-21T14:19:08;10.52;;;2.85;;
64242;SDS011;50573;51.512;5.386;2022-08-21T14:29:13;13.10;;;2.85;;
64242;SDS011;50573;51.512;5.386;2022-08-21T14:39:20;9.35;;;3.05;;
64242;SDS011;50573;51.512;5.386;2022-08-21T14:49:25;15.10;;;4.57;;
64242;SDS011;50573;51.512;5.386;2022-08-21T14:59:31;11.77;;;3.30;;
64242;SDS011;50573;51.512;5.386;2022-08-21T15:09:35;15.45;;;3.88;;
64242;SDS011;50573;51.512;5.386;2022-08-21T15:19:39;11.38;;;3.83;;
64242;SDS011;50573;51.512;5.386;2022-08-21T15:29:42;16.30;;;4.72;;
64242;SDS011;50573;51.512;5.386;2022-08-21T15:49:54;12.77;;;4.35;;
64242;SDS011;50573;51.512;5.386;2022-08-21T16:00:00;8.63;;;3.00;;
64242;SDS011;50573;51.512;5.386;2022-08-21T16:10:13;10.18;;;2.67;;
64242;SDS011;50573;51.512;5.386;2022-08-21T16:20:19;11.63;;;2.90;;
64242;SDS011;50573;51.512;5.386;2022-08-21T16:30:25;9.38;;;2.35;;
64242;SDS011;50573;51.512;5.386;2022-08-21T16:40:30;13.55;;;3.40;;
64242;SDS011;50573;51.512;5.386;2022-08-21T16:50:34;5.43;;;2.65;;
64242;SDS011;50573;51.512;5.386;2022-08-21T17:00:39;10.18;;;2.28;;
64242;SDS011;50573;51.512;5.386;2022-08-21T17:10:43;7.30;;;2.72;;
64242;SDS011;50573;51.512;5.386;2022-08-21T17:20:50;14.82;;;4.72;;
64242;SDS011;50573;51.512;5.386;2022-08-21T17:30:55;9.60;;;3.40;;
64242;SDS011;50573;51.512;5.386;2022-08-21T17:41:08;10.27;;;3.20;;
64242;SDS011;50573;51.512;5.386;2022-08-21T17:51:11;22.75;;;12.18;;
64242;SDS011;50573;51.512;5.386;2022-08-21T18:01:16;7.27;;;2.47;;
64242;SDS011;50573;51.512;5.386;2022-08-21T18:11:20;9.98;;;3.30;;
64242;SDS011;50573;51.512;5.386;2022-08-21T18:21:29;8.82;;;3.17;;
64242;SDS011;50573;51.512;5.386;2022-08-21T18:31:34;8.88;;;3.17;;
64242;SDS011;50573;51.512;5.386;2022-08-21T18:41:40;10.07;;;3.25;;
64242;SDS011;50573;51.512;5.386;2022-08-21T18:51:43;9.50;;;3.00;;
64242;SDS011;50573;51.512;5.386;2022-08-21T19:01:49;11.57;;;3.17;;
64242;SDS011;50573;51.512;5.386;2022-08-21T19:11:52;12.32;;;3.28;;
64242;SDS011;50573;51.512;5.386;2022-08-21T19:21:57;11.50;;;3.45;;
64242;SDS011;50573;51.512;5.386;2022-08-21T19:42:06;9.43;;;3.40;;
64242;SDS011;50573;51.512;5.386;2022-08-21T19:52:10;10.60;;;3.30;;
64242;SDS011;50573;51.512;5.386;2022-08-21T20:02:34;15.82;;;3.58;;
64242;SDS011;50573;51.512;5.386;2022-08-21T20:12:48;10.10;;;3.28;;
64242;SDS011;50573;51.512;5.386;2022-08-21T20:22:53;12.40;;;3.77;;
64242;SDS011;50573;51.512;5.386;2022-08-21T20:32:56;12.27;;;3.95;;
64242;SDS011;50573;51.512;5.386;2022-08-21T20:43:01;10.47;;;3.87;;
64242;SDS011;50573;51.512;5.386;2022-08-21T20:53:07;13.82;;;3.50;;
64242;SDS011;50573;51.512;5.386;2022-08-21T21:03:18;10.80;;;3.67;;
64242;SDS011;50573;51.512;5.386;2022-08-21T21:13:31;14.40;;;4.35;;
64242;SDS011;50573;51.512;5.386;2022-08-21T21:23:40;10.40;;;4.22;;
64242;SDS011;50573;51.512;5.386;2022-08-21T21:33:47;7.93;;;3.78;;
64242;SDS011;50573;51.512;5.386;2022-08-21T21:43:55;10.20;;;4.70;;
64242;SDS011;50573;51.512;5.386;2022-08-21T21:54:14;13.23;;;4.25;;
64242;SDS011;50573;51.512;5.386;2022-08-21T22:04:33;12.68;;;4.78;;
64242;SDS011;50573;51.512;5.386;2022-08-21T22:14:51;10.50;;;4.78;;
64242;SDS011;50573;51.512;5.386;2022-08-21T22:24:58;14.48;;;4.63;;
64242;SDS011;50573;51.512;5.386;2022-08-21T22:35:08;13.95;;;4.35;;
64242;SDS011;50573;51.512;5.386;2022-08-21T22:45:18;9.48;;;4.32;;
64242;SDS011;50573;51.512;5.386;2022-08-21T22:55:23;10.98;;;4.82;;
64242;SDS011;50573;51.512;5.386;2022-08-21T23:05:32;9.65;;;4.82;;
64242;SDS011;50573;51.512;5.386;2022-08-21T23:15:39;10.93;;;5.68;;
64242;SDS011;50573;51.512;5.386;2022-08-21T23:25:55;13.55;;;6.30;;
64242;SDS011;50573;51.512;5.386;2022-08-21T23:36:19;18.17;;;7.25;;
64242;SDS011;50573;51.512;5.386;2022-08-21T23:46:51;18.73;;;6.15;;
64242;SDS011;50573;51.512;5.386;2022-08-21T23:57:07;21.45;;;7.10;;
